Time;durP1;ratioP1;P1;durP2;ratioP2;P2;SDS_P1;SDS_P2;PMS_P1;PMS_P2;Temp;Humidity;BMP_temperature;BMP_pressure;BME280_temperature;BME280_humidity;BME280_pressure;Samples;Min_cycle;Max_cycle;Signal;HPM_P1;HPM_P2
2022/07/05 00:03:14;;;;;;;2.83;2.63;;;21.20;75.40;;;;;;10456135;28;20229;-80
2022/07/05 00:08:16;;;;;;;2.87;2.67;;;21.20;75.10;;;;;;10450155;28;20296;-80
2022/07/05 00:13:19;;;;;;;3.40;3.10;;;21.10;77.50;;;;;;10445913;28;20231;-77
2022/07/05 00:18:21;;;;;;;2.63;2.40;;;21.10;77.10;;;;;;10456232;28;20756;-79
2022/07/05 00:23:23;;;;;;;2.97;2.87;;;21.10;77.30;;;;;;10449889;28;20984;-78
2022/07/05 00:28:27;;;;;;;3.03;2.83;;;21.00;77.70;;;;;;10434427;28;20217;-78
2022/07/05 00:33:29;;;;;;;3.50;3.30;;;21.00;77.90;;;;;;10458268;28;20194;-76
2022/07/05 00:38:31;;;;;;;8.33;4.33;;;20.90;78.60;;;;;;10450037;28;20609;-79
2022/07/05 00:43:35;;;;;;;3.87;3.57;;;20.80;79.00;;;;;;10453763;28;20267;-78
2022/07/05 00:48:37;;;;;;;4.60;3.60;;;20.80;79.70;;;;;;10455877;28;20280;-78
2022/07/05 00:53:40;;;;;;;3.87;3.30;;;20.80;80.00;;;;;;10458623;28;20225;-77
2022/07/05 00:58:44;;;;;;;3.73;3.53;;;20.70;80.90;;;;;;10455794;28;20221;-80
2022/07/05 01:03:47;;;;;;;3.03;2.83;;;20.70;79.50;;;;;;10446573;28;20220;-80
2022/07/05 01:08:50;;;;;;;3.27;3.07;;;20.70;81.30;;;;;;10445605;28;20733;-79
2022/07/05 01:13:54;;;;;;;3.37;3.07;;;20.60;80.10;;;;;;10450567;28;20282;-77
2022/07/05 01:18:56;;;;;;;3.67;2.97;;;20.60;79.80;;;;;;10429216;28;20645;-76
2022/07/05 01:24:01;;;;;;;2.80;2.70;;;20.50;80.40;;;;;;10451244;28;20594;-76
2022/07/05 01:29:03;;;;;;;3.27;3.07;;;20.50;81.00;;;;;;10450936;28;20225;-77
2022/07/05 01:34:06;;;;;;;2.90;2.70;;;20.50;81.70;;;;;;10454154;28;20200;-76
2022/07/05 01:39:09;;;;;;;2.87;2.67;;;20.40;79.50;;;;;;10449445;28;20256;-77
2022/07/05 01:44:12;;;;;;;9.83;2.70;;;20.30;79.30;;;;;;10452445;28;20225;-77
2022/07/05 01:49:17;;;;;;;2.70;2.60;;;20.30;81.00;;;;;;10449008;28;20225;-77
2022/07/05 01:54:21;;;;;;;2.30;2.20;;;20.20;79.90;;;;;;10441686;28;20258;-79
2022/07/05 01:59:23;;;;;;;2.80;2.60;;;20.20;80.50;;;;;;10454567;28;20228;-79
2022/07/05 02:04:26;;;;;;;2.87;2.67;;;20.20;82.20;;;;;;10450190;28;20739;-77
2022/07/05 02:09:29;;;;;;;2.97;2.73;;;20.10;81.00;;;;;;10434009;28;20307;-77
2022/07/05 02:14:32;;;;;;;2.70;2.60;;;20.10;81.30;;;;;;10445418;28;20204;-78
2022/07/05 02:19:39;;;;;;;2.80;2.60;;;20.10;81.80;;;;;;10426193;28;20350;-76
2022/07/05 02:24:46;;;;;;;2.90;2.70;;;20.00;82.40;;;;;;10437461;28;20217;-75
2022/07/05 02:29:58;;;;;;;3.50;2.60;;;19.90;83.20;;;;;;10460341;28;20235;-78
2022/07/05 02:35:11;;;;;;;2.93;2.73;;;19.90;81.90;;;;;;10453898;28;20254;-80
2022/07/05 02:40:16;;;;;;;3.27;3.00;;;19.90;82.30;;;;;;10431733;28;20233;-78
2022/07/05 02:45:23;;;;;;;3.43;3.13;;;19.80;82.30;;;;;;10452397;28;20213;-78
2022/07/05 02:50:31;;;;;;;3.37;3.10;;;19.80;82.20;;;;;;10452392;28;20292;-77
2022/07/05 02:55:35;;;;;;;3.30;3.00;;;19.80;81.80;;;;;;10435844;28;20688;-78
2022/07/05 03:00:38;;;;;;;3.70;3.40;;;19.80;82.40;;;;;;10444510;28;20247;-77
2022/07/05 03:05:41;;;;;;;3.43;3.23;;;19.70;82.70;;;;;;10446462;28;20299;-76
2022/07/05 03:10:45;;;;;;;7.93;3.30;;;19.70;82.30;;;;;;10437488;28;20791;-76
2022/07/05 03:15:47;;;;;;;4.00;3.80;;;19.70;82.70;;;;;;10447382;28;20224;-77
2022/07/05 03:20:53;;;;;;;3.60;3.40;;;19.60;84.50;;;;;;10447417;28;20216;-76
2022/07/05 03:25:59;;;;;;;3.30;3.10;;;19.60;84.30;;;;;;10442918;28;20251;-77
2022/07/05 03:31:02;;;;;;;3.63;3.33;;;19.50;84.30;;;;;;10443569;28;20615;-77
2022/07/05 03:36:08;;;;;;;3.73;3.10;;;19.50;85.00;;;;;;10429998;28;20233;-77
2022/07/05 03:41:14;;;;;;;3.27;3.07;;;19.40;84.10;;;;;;10455770;28;20724;-77
2022/07/05 03:46:16;;;;;;;3.80;3.60;;;19.40;85.30;;;;;;10457229;28;20693;-77
2022/07/05 03:51:19;;;;;;;3.73;3.43;;;19.40;84.20;;;;;;10449026;28;20727;-76
2022/07/05 03:56:24;;;;;;;4.83;4.30;;;19.30;83.50;;;;;;10452011;28;20221;-77
2022/07/05 04:01:29;;;;;;;3.57;3.37;;;19.30;85.10;;;;;;10457515;28;20213;-77
2022/07/05 04:06:32;;;;;;;3.57;3.30;;;19.30;85.10;;;;;;10449956;28;20577;-77
2022/07/05 04:11:38;;;;;;;5.30;3.30;;;19.30;86.70;;;;;;10455363;28;20217;-77
2022/07/05 04:16:41;;;;;;;4.93;4.17;;;19.30;85.90;;;;;;10450330;28;20286;-77
2022/07/05 04:21:43;;;;;;;3.80;3.60;;;19.30;86.80;;;;;;10457136;28;20622;-78
2022/07/05 04:26:47;;;;;;;4.97;4.07;;;19.30;86.60;;;;;;10455813;28;20231;-77
2022/07/05 04:31:49;;;;;;;4.10;3.90;;;19.30;87.20;;;;;;10453905;28;20689;-76
2022/07/05 04:36:52;;;;;;;3.73;3.53;;;19.40;87.40;;;;;;10451925;28;20197;-77
2022/07/05 04:41:56;;;;;;;3.53;3.33;;;19.30;87.00;;;;;;10439236;28;20650;-77
2022/07/05 04:46:58;;;;;;;3.43;3.20;;;19.30;86.60;;;;;;10430302;28;20197;-77
2022/07/05 04:52:00;;;;;;;4.50;4.10;;;19.30;86.50;;;;;;10448580;28;20225;-77
2022/07/05 04:57:05;;;;;;;4.17;3.87;;;19.30;88.50;;;;;;10446984;28;20199;-76
2022/07/05 05:02:07;;;;;;;4.63;4.23;;;19.30;88.20;;;;;;10447654;28;20217;-77
2022/07/05 05:07:09;;;;;;;6.10;4.00;;;19.30;88.50;;;;;;10448202;28;20207;-78
2022/07/05 05:12:13;;;;;;;6.90;3.73;;;19.40;90.00;;;;;;10440348;28;20362;-77
2022/07/05 05:17:15;;;;;;;3.90;3.70;;;19.40;89.50;;;;;;10444045;28;20669;-78
2022/07/05 05:22:17;;;;;;;5.90;3.80;;;19.50;88.60;;;;;;10443915;28;20328;-77
2022/07/05 05:27:20;;;;;;;3.97;3.67;;;19.50;89.30;;;;;;10451717;28;20204;-77
2022/07/05 05:32:22;;;;;;;4.10;3.57;;;19.60;86.40;;;;;;10449916;28;20217;-77
2022/07/05 05:37:25;;;;;;;3.57;3.37;;;19.60;86.60;;;;;;10448908;28;20224;-76
2022/07/05 05:42:28;;;;;;;3.73;3.27;;;19.70;84.90;;;;;;10451285;28;20244;-76
2022/07/05 05:47:30;;;;;;;3.00;2.80;;;19.70;84.40;;;;;;10452059;28;20204;-77
2022/07/05 05:52:32;;;;;;;3.33;3.03;;;19.80;85.50;;;;;;10447992;28;20297;-77
2022/07/05 05:57:36;;;;;;;3.30;3.10;;;19.80;85.20;;;;;;10448670;28;20198;-76
2022/07/05 06:02:38;;;;;;;3.90;3.60;;;19.90;84.30;;;;;;10449675;28;20225;-78
2022/07/05 06:07:49;;;;;;;3.10;3.00;;;20.00;84.20;;;;;;10451756;28;20312;-77
2022/07/05 06:12:53;;;;;;;3.27;3.03;;;20.00;84.90;;;;;;10446887;28;20666;-76
2022/07/05 06:17:56;;;;;;;3.83;3.53;;;20.10;84.90;;;;;;10446536;28;20666;-77
2022/07/05 06:22:59;;;;;;;4.00;3.60;;;20.20;83.90;;;;;;10448356;28;20289;-76
2022/07/05 06:28:05;;;;;;;3.07;2.87;;;20.20;84.40;;;;;;10449635;28;20198;-76
2022/07/05 06:33:07;;;;;;;3.00;2.90;;;20.30;84.70;;;;;;10450459;28;20285;-77
2022/07/05 06:38:10;;;;;;;3.10;2.80;;;20.50;85.60;;;;;;10447835;28;20300;-77
2022/07/05 06:43:15;;;;;;;2.30;2.17;;;20.60;84.30;;;;;;10448731;28;20248;-78
2022/07/05 06:48:32;;;;;;;3.07;2.83;;;20.80;81.20;;;;;;10426915;28;20783;-78
2022/07/05 06:53:34;;;;;;;3.20;3.00;;;21.00;80.00;;;;;;10453538;28;20281;-78
2022/07/05 06:58:37;;;;;;;3.10;3.00;;;21.30;78.10;;;;;;10453416;28;20296;-78
2022/07/05 07:03:40;;;;;;;3.00;2.77;;;21.60;77.20;;;;;;10449627;28;20283;-77
2022/07/05 07:14:03;;;;;;;3.23;2.90;;;22.20;76.20;;;;;;10454503;28;20196;-78
2022/07/05 07:19:05;;;;;;;2.47;2.37;;;22.40;73.70;;;;;;10460229;28;20633;-78
2022/07/05 07:24:09;;;;;;;3.93;2.80;;;22.70;72.40;;;;;;10460385;28;20591;-76
2022/07/05 07:29:12;;;;;;;3.00;2.80;;;23.00;71.70;;;;;;10453522;28;20681;-77
2022/07/05 07:34:14;;;;;;;3.60;2.63;;;23.30;69.90;;;;;;10454755;28;20190;-76
2022/07/05 07:39:17;;;;;;;4.77;2.83;;;23.50;69.80;;;;;;10454560;28;20308;-77
2022/07/05 07:44:21;;;;;;;2.50;2.40;;;23.80;68.80;;;;;;10455436;28;20414;-77
2022/07/05 07:49:23;;;;;;;3.27;2.00;;;24.10;65.70;;;;;;10457923;28;20217;-77
2022/07/05 07:54:25;;;;;;;2.90;2.70;;;24.30;65.40;;;;;;10452848;28;20193;-76
2022/07/05 07:59:28;;;;;;;2.93;2.73;;;24.50;65.20;;;;;;10451801;28;20242;-77
2022/07/05 08:04:30;;;;;;;4.13;3.13;;;24.80;66.20;;;;;;10455468;28;20738;-77
2022/07/05 08:09:32;;;;;;;8.53;2.90;;;25.10;66.00;;;;;;10451925;28;20248;-77
2022/07/05 08:14:36;;;;;;;3.23;2.53;;;25.40;63.80;;;;;;10453785;28;20197;-77
2022/07/05 08:24:58;;;;;;;3.47;3.13;;;26.40;63.90;;;;;;10452390;28;20685;-77
2022/07/05 08:30:02;;;;;;;2.50;2.40;;;27.00;63.50;;;;;;10457501;28;20245;-78
2022/07/05 08:35:05;;;;;;;3.47;3.27;;;27.60;59.70;;;;;;10459561;28;20276;-77
2022/07/05 08:40:09;;;;;;;2.80;2.60;;;28.10;58.90;;;;;;10456235;28;20221;-78
2022/07/05 08:45:13;;;;;;;2.70;2.60;;;28.60;58.40;;;;;;10451634;28;20704;-77
2022/07/05 08:50:16;;;;;;;2.70;2.50;;;29.10;56.60;;;;;;10451996;28;20214;-76
2022/07/05 08:55:18;;;;;;;2.40;2.30;;;29.50;55.60;;;;;;10441286;28;20202;-77
2022/07/05 09:00:22;;;;;;;2.50;2.30;;;30.00;54.60;;;;;;10452661;28;20227;-78
2022/07/05 09:05:27;;;;;;;2.50;2.40;;;30.30;54.80;;;;;;10448570;28;20248;-77
2022/07/05 09:10:31;;;;;;;2.87;2.77;;;30.70;53.90;;;;;;10452409;28;20829;-76
2022/07/05 09:15:34;;;;;;;2.40;2.30;;;31.10;53.60;;;;;;10456655;28;20193;-78
2022/07/05 09:20:36;;;;;;;2.40;2.30;;;31.50;52.40;;;;;;10456854;28;20274;-78
2022/07/05 09:25:38;;;;;;;3.80;2.40;;;31.80;50.20;;;;;;10458589;28;20796;-78
2022/07/05 09:30:43;;;;;;;1.93;1.83;;;32.00;50.60;;;;;;10455608;28;20296;-77
2022/07/05 09:35:54;;;;;;;2.10;1.90;;;32.20;50.20;;;;;;10449718;28;20228;-77
2022/07/05 09:40:58;;;;;;;2.40;1.90;;;32.70;48.80;;;;;;10447286;28;20299;-77
2022/07/05 09:46:03;;;;;;;2.27;1.97;;;33.20;47.70;;;;;;10434159;28;20217;-77
2022/07/05 09:51:06;;;;;;;4.40;1.90;;;33.90;47.40;;;;;;10448498;28;20564;-77
2022/07/05 09:56:08;;;;;;;1.80;1.70;;;34.70;45.70;;;;;;10432715;28;20195;-77
2022/07/05 10:01:26;;;;;;;3.37;1.80;;;35.00;45.50;;;;;;10451713;28;20251;-77
2022/07/05 10:06:32;;;;;;;1.80;1.70;;;34.90;44.20;;;;;;10443461;28;20255;-77
2022/07/05 10:11:37;;;;;;;1.70;1.30;;;34.90;42.70;;;;;;10441752;28;20661;-77
2022/07/05 10:16:42;;;;;;;1.70;1.60;;;35.10;43.30;;;;;;10451150;28;20312;-77
2022/07/05 10:21:45;;;;;;;1.90;1.70;;;35.70;42.20;;;;;;10444855;28;20229;-77
2022/07/05 10:26:49;;;;;;;2.00;1.90;;;35.70;42.70;;;;;;10448017;28;20225;-77
2022/07/05 10:31:52;;;;;;;3.23;1.83;;;34.80;41.40;;;;;;10446194;28;20299;-77
2022/07/05 10:36:54;;;;;;;2.30;1.73;;;33.60;42.00;;;;;;10454062;28;20243;-76
2022/07/05 10:41:58;;;;;;;1.90;1.80;;;32.30;43.40;;;;;;10442893;28;20613;-77
2022/07/05 10:47:12;;;;;;;2.20;1.80;;;31.20;44.30;;;;;;10435947;28;20236;-76
2022/07/05 10:52:24;;;;;;;3.97;2.00;;;30.40;45.20;;;;;;10432159;28;20246;-77
2022/07/05 10:57:26;;;;;;;1.70;1.60;;;29.70;47.20;;;;;;10430502;28;20256;-76
2022/07/05 11:02:30;;;;;;;1.70;1.60;;;29.20;47.80;;;;;;10432791;28;20244;-77
2022/07/05 11:07:59;;;;;;;2.20;2.00;;;28.70;47.40;;;;;;10438680;28;20224;-76
2022/07/05 11:13:20;;;;;;;1.43;1.30;;;28.20;48.50;;;;;;10402579;28;20653;-76
2022/07/05 11:18:25;;;;;;;1.83;1.67;;;27.80;49.70;;;;;;10443381;28;20593;-76
2022/07/05 11:23:28;;;;;;;2.47;1.90;;;27.60;48.80;;;;;;10448232;28;20213;-77
2022/07/05 11:28:43;;;;;;;1.90;1.80;;;27.30;49.90;;;;;;10435397;28;20229;-77
2022/07/05 11:33:49;;;;;;;3.30;2.30;;;27.10;51.10;;;;;;10438414;28;20201;-77
2022/07/05 11:39:15;;;;;;;2.80;2.40;;;26.90;51.10;;;;;;10439735;28;20240;-77
2022/07/05 11:44:17;;;;;;;4.20;1.80;;;26.80;51.80;;;;;;10433951;28;20205;-80
2022/07/05 11:49:22;;;;;;;2.17;2.07;;;26.70;52.00;;;;;;10441674;28;20236;-79
2022/07/05 11:54:25;;;;;;;2.70;2.20;;;26.60;52.80;;;;;;10436940;28;20304;-77
2022/07/05 11:59:28;;;;;;;2.70;2.00;;;26.60;52.50;;;;;;10445389;28;20225;-77
2022/07/05 12:04:32;;;;;;;2.37;2.10;;;26.50;53.20;;;;;;10445818;28;20590;-77
2022/07/05 12:14:51;;;;;;;1.87;1.73;;;26.40;53.20;;;;;;10454529;28;20589;-77
2022/07/05 12:19:55;;;;;;;2.20;1.70;;;26.40;52.10;;;;;;10453891;28;20236;-77
2022/07/05 12:24:58;;;;;;;2.57;2.37;;;26.40;51.70;;;;;;10445920;28;20299;-76
2022/07/05 12:30:03;;;;;;;2.30;2.20;;;26.30;53.40;;;;;;10451645;28;20275;-76
2022/07/05 12:35:27;;;;;;;2.37;2.27;;;26.40;53.50;;;;;;10448152;28;20209;-77
2022/07/05 12:40:29;;;;;;;2.20;2.10;;;26.40;53.70;;;;;;10450227;28;20225;-77
2022/07/05 12:45:32;;;;;;;2.80;2.70;;;26.50;53.00;;;;;;10450467;28;20234;-77
2022/07/05 12:50:50;;;;;;;3.70;2.53;;;26.60;53.00;;;;;;10449452;28;20276;-77
2022/07/05 13:01:21;;;;;;;2.70;2.40;;;26.60;53.60;;;;;;10446907;28;20213;-77
2022/07/05 13:06:24;;;;;;;2.57;2.37;;;26.60;53.40;;;;;;10447524;28;20218;-76
2022/07/05 13:11:31;;;;;;;2.70;1.90;;;26.60;53.10;;;;;;10442654;28;20308;-76
2022/07/05 13:16:33;;;;;;;1.70;1.53;;;26.50;53.30;;;;;;10431934;28;20642;-77
2022/07/05 13:21:37;;;;;;;2.10;2.00;;;26.50;53.00;;;;;;10452655;28;20278;-79
2022/07/05 13:26:39;;;;;;;2.70;2.10;;;26.60;53.80;;;;;;10451791;28;20231;-77
2022/07/05 13:31:42;;;;;;;2.20;2.00;;;26.60;53.80;;;;;;10448414;28;20300;-79
2022/07/05 13:36:46;;;;;;;1.80;1.70;;;26.60;54.20;;;;;;10455651;28;20201;-78
2022/07/05 13:41:49;;;;;;;2.53;2.33;;;26.60;53.90;;;;;;10454695;28;20697;-78
2022/07/05 13:46:51;;;;;;;2.20;2.10;;;26.60;53.10;;;;;;10458856;28;20229;-79
2022/07/05 13:51:54;;;;;;;3.43;1.90;;;26.50;53.60;;;;;;10457549;28;20231;-79
2022/07/05 13:56:56;;;;;;;2.00;1.90;;;26.40;53.30;;;;;;10453728;28;20206;-79
2022/07/05 14:01:58;;;;;;;2.93;2.63;;;26.30;55.30;;;;;;10453154;28;20213;-77
2022/07/05 14:07:02;;;;;;;2.13;2.03;;;26.20;54.70;;;;;;10455639;28;20761;-79
2022/07/05 14:12:05;;;;;;;5.27;2.17;;;26.30;54.00;;;;;;10452898;28;20754;-78
2022/07/05 14:17:07;;;;;;;2.33;2.10;;;26.40;53.60;;;;;;10453815;28;20201;-76
2022/07/05 14:22:10;;;;;;;2.20;2.00;;;26.50;53.90;;;;;;10448852;28;20221;-77
2022/07/05 14:27:12;;;;;;;1.53;1.43;;;26.40;56.10;;;;;;10447707;28;20735;-78
2022/07/05 14:32:14;;;;;;;2.50;2.37;;;26.30;54.70;;;;;;10448955;28;20245;-77
2022/07/05 14:37:20;;;;;;;2.30;2.20;;;26.30;53.70;;;;;;10450865;28;20232;-78
2022/07/05 14:42:22;;;;;;;4.00;2.40;;;26.20;55.80;;;;;;10451853;28;20236;-77
2022/07/05 14:47:26;;;;;;;2.10;2.00;;;26.30;54.70;;;;;;10446773;28;20267;-77
2022/07/05 14:52:30;;;;;;;1.90;1.80;;;26.30;53.80;;;;;;10447180;28;21041;-78
2022/07/05 14:57:32;;;;;;;4.50;2.70;;;26.30;53.50;;;;;;10448482;28;20655;-77
2022/07/05 15:02:35;;;;;;;2.07;1.97;;;26.30;53.30;;;;;;10450400;28;20225;-77
2022/07/05 15:07:39;;;;;;;2.13;2.03;;;26.30;52.70;;;;;;10440476;28;20226;-78
2022/07/05 15:12:41;;;;;;;2.10;1.90;;;26.30;52.40;;;;;;10445584;28;20229;-77
2022/07/05 15:17:43;;;;;;;2.20;1.97;;;26.20;53.90;;;;;;10447160;28;20193;-78
2022/07/05 15:22:47;;;;;;;2.20;2.10;;;26.30;53.00;;;;;;10447273;28;20283;-78
2022/07/05 15:27:49;;;;;;;2.00;1.90;;;26.20;53.50;;;;;;10451738;28;20228;-77
2022/07/05 15:32:51;;;;;;;2.50;2.30;;;26.20;53.50;;;;;;10451183;28;20661;-79
2022/07/05 15:37:55;;;;;;;3.30;2.20;;;26.20;52.30;;;;;;10459874;28;20255;-79
2022/07/05 15:42:57;;;;;;;2.40;2.27;;;26.20;52.30;;;;;;10459520;28;20200;-78
2022/07/05 15:47:59;;;;;;;1.87;1.77;;;26.20;52.30;;;;;;10449236;28;20227;-78
2022/07/05 15:53:02;;;;;;;2.00;1.90;;;26.20;52.20;;;;;;10449334;28;20201;-79
2022/07/05 15:58:04;;;;;;;2.80;2.10;;;26.20;52.70;;;;;;10443776;28;20273;-79
2022/07/05 16:03:06;;;;;;;2.07;1.97;;;26.20;54.60;;;;;;10449998;28;20194;-79
2022/07/05 16:08:10;;;;;;;2.17;2.07;;;26.10;54.00;;;;;;10441018;28;20234;-79
2022/07/05 16:13:15;;;;;;;1.60;1.50;;;26.10;54.00;;;;;;10439691;28;20205;-78
2022/07/05 16:18:17;;;;;;;2.37;2.17;;;26.10;51.50;;;;;;10444622;28;20217;-78
2022/07/05 16:23:21;;;;;;;2.50;2.30;;;26.10;52.10;;;;;;10448611;28;20205;-78
2022/07/05 16:28:25;;;;;;;1.93;1.83;;;26.00;52.00;;;;;;10447550;28;20692;-78
2022/07/05 16:33:27;;;;;;;2.77;1.80;;;26.00;53.20;;;;;;10451389;28;20283;-78
2022/07/05 16:38:31;;;;;;;2.40;2.20;;;26.00;53.30;;;;;;10448025;28;20253;-78
2022/07/05 16:43:36;;;;;;;2.13;2.00;;;26.00;53.10;;;;;;10450168;28;20204;-78
2022/07/05 16:48:39;;;;;;;2.33;2.13;;;26.00;51.90;;;;;;10440108;28;20233;-78
2022/07/05 16:53:44;;;;;;;1.90;1.80;;;26.00;52.40;;;;;;10440397;28;20331;-78
2022/07/05 16:58:50;;;;;;;1.90;1.80;;;25.90;51.90;;;;;;10439256;28;20279;-77
2022/07/05 17:03:54;;;;;;;2.20;2.03;;;25.90;53.70;;;;;;10436979;28;20605;-78
2022/07/05 17:08:57;;;;;;;4.53;2.03;;;25.90;52.60;;;;;;10439049;28;20229;-78
2022/07/05 17:13:59;;;;;;;2.63;2.00;;;25.80;54.00;;;;;;10444497;28;20261;-78
2022/07/05 17:19:01;;;;;;;1.87;1.77;;;25.80;53.60;;;;;;10447041;28;20231;-78
2022/07/05 17:24:05;;;;;;;2.87;2.67;;;25.70;52.70;;;;;;10447035;28;20201;-78
2022/07/05 17:29:07;;;;;;;2.33;2.13;;;25.70;52.50;;;;;;10453311;28;21010;-78
2022/07/05 17:34:10;;;;;;;1.87;1.77;;;25.70;49.90;;;;;;10447754;28;20997;-78
2022/07/05 17:39:17;;;;;;;1.60;1.53;;;25.60;51.30;;;;;;10448301;28;20320;-78
2022/07/05 17:44:19;;;;;;;2.83;2.47;;;25.60;50.30;;;;;;10439331;28;20277;-78
2022/07/05 17:49:22;;;;;;;2.50;2.30;;;25.60;51.70;;;;;;10443477;28;20890;-77
2022/07/05 17:54:25;;;;;;;2.60;2.40;;;25.50;52.00;;;;;;10440031;28;20276;-78
2022/07/05 17:59:27;;;;;;;3.30;2.37;;;25.50;52.90;;;;;;10443338;28;20245;-78
2022/07/05 18:04:30;;;;;;;2.67;1.93;;;25.50;53.10;;;;;;10432857;28;20670;-78
2022/07/05 18:09:34;;;;;;;3.10;2.63;;;25.40;53.80;;;;;;10425638;28;20217;-78
2022/07/05 18:14:36;;;;;;;2.50;2.30;;;25.40;53.40;;;;;;10433570;28;20201;-78
2022/07/05 18:19:38;;;;;;;1.80;1.70;;;25.40;53.10;;;;;;10440479;28;20213;-78
2022/07/05 18:24:41;;;;;;;2.40;2.30;;;25.30;53.60;;;;;;10443480;28;20216;-77
2022/07/05 18:29:44;;;;;;;2.43;2.30;;;25.20;52.90;;;;;;10429849;28;20229;-78
2022/07/05 18:34:46;;;;;;;3.10;1.80;;;25.10;53.30;;;;;;10440281;28;20201;-78
2022/07/05 18:39:49;;;;;;;2.60;2.50;;;25.10;53.40;;;;;;10445791;28;20290;-79
2022/07/05 18:44:51;;;;;;;4.17;2.60;;;25.00;55.50;;;;;;10447105;28;20221;-79
2022/07/05 18:49:57;;;;;;;2.57;2.30;;;25.00;54.90;;;;;;10450949;28;21051;-78
2022/07/05 18:55:00;;;;;;;3.13;2.43;;;24.90;56.30;;;;;;10451742;28;20288;-78
2022/07/05 19:00:11;;;;;;;2.73;2.53;;;24.80;56.10;;;;;;10440192;28;20229;-79
2022/07/05 19:05:22;;;;;;;2.67;2.57;;;24.80;57.00;;;;;;10424460;28;20212;-78
2022/07/05 19:15:59;;;;;;;2.37;2.27;;;24.60;60.10;;;;;;10434692;28;20206;-77
2022/07/05 19:21:03;;;;;;;3.10;2.70;;;24.50;60.70;;;;;;10446283;28;20221;-78
2022/07/05 19:26:12;;;;;;;2.10;2.00;;;24.50;68.10;;;;;;10443651;28;20221;-78
2022/07/05 19:31:14;;;;;;;3.23;3.03;;;24.40;61.50;;;;;;10456168;28;20583;-78
2022/07/05 19:36:28;;;;;;;4.83;2.33;;;24.30;58.80;;;;;;10448934;28;20288;-78
2022/07/05 19:41:35;;;;;;;2.40;2.30;;;24.20;59.10;;;;;;10448986;28;20232;-78
2022/07/05 19:46:39;;;;;;;3.33;2.40;;;24.00;59.20;;;;;;10445887;28;20220;-77
2022/07/05 19:51:42;;;;;;;2.50;2.30;;;23.80;59.80;;;;;;10445495;28;20225;-77
2022/07/05 19:56:51;;;;;;;2.40;2.30;;;23.70;59.60;;;;;;10443371;28;20198;-77
2022/07/05 20:01:55;;;;;;;2.27;2.00;;;23.50;59.40;;;;;;10438545;28;20226;-78
2022/07/05 20:07:00;;;;;;;2.43;2.30;;;23.40;60.10;;;;;;10443334;28;20248;-77
2022/07/05 20:12:04;;;;;;;2.13;2.03;;;23.30;60.70;;;;;;10441995;28;20311;-77
2022/07/05 20:17:14;;;;;;;4.83;2.80;;;23.20;60.10;;;;;;10442308;28;20227;-77
2022/07/05 20:22:24;;;;;;;3.20;2.90;;;23.10;60.90;;;;;;10444290;28;20217;-77
2022/07/05 20:27:28;;;;;;;2.27;2.10;;;23.00;61.80;;;;;;10448940;28;20248;-77
2022/07/05 20:32:30;;;;;;;2.83;2.57;;;23.00;61.40;;;;;;10448931;28;20642;-77
2022/07/05 20:37:34;;;;;;;2.03;1.93;;;22.90;61.60;;;;;;10448311;28;20202;-77
2022/07/05 20:42:46;;;;;;;2.20;2.10;;;22.70;63.00;;;;;;10448391;28;20220;-77
2022/07/05 20:47:48;;;;;;;3.77;2.70;;;22.70;63.20;;;;;;10447257;28;20235;-77
2022/07/05 20:52:52;;;;;;;3.87;2.37;;;22.60;63.00;;;;;;10440577;28;20274;-77
2022/07/05 20:57:56;;;;;;;2.63;2.53;;;22.50;62.00;;;;;;10442804;28;20201;-77
2022/07/05 21:02:59;;;;;;;2.33;2.20;;;22.50;62.50;;;;;;10445464;28;20283;-76
2022/07/05 21:08:01;;;;;;;2.77;2.57;;;22.40;63.00;;;;;;10446194;28;20251;-77
2022/07/05 21:13:04;;;;;;;2.30;2.20;;;22.30;65.00;;;;;;10442491;28;20201;-77
2022/07/05 21:18:06;;;;;;;2.30;2.20;;;22.20;64.80;;;;;;10438740;28;20202;-77
2022/07/05 21:23:08;;;;;;;3.23;3.03;;;22.20;65.80;;;;;;10445912;28;20298;-76
2022/07/05 21:28:12;;;;;;;3.00;2.70;;;22.20;65.90;;;;;;10446552;28;20231;-76
2022/07/05 21:33:14;;;;;;;2.43;2.23;;;22.10;65.60;;;;;;10443564;28;20197;-77
2022/07/05 21:38:16;;;;;;;2.37;2.27;;;22.10;65.90;;;;;;10440284;28;20708;-77
2022/07/05 21:43:20;;;;;;;2.50;2.30;;;22.00;67.70;;;;;;10444320;28;20279;-77
2022/07/05 21:48:22;;;;;;;4.20;2.77;;;22.00;66.80;;;;;;10437019;28;20736;-78
2022/07/05 21:53:24;;;;;;;2.73;2.53;;;21.90;66.60;;;;;;10442693;28;20198;-77
2022/07/05 21:58:27;;;;;;;1.93;1.83;;;21.90;65.40;;;;;;10426405;28;20599;-78
2022/07/05 22:08:49;;;;;;;3.00;2.30;;;21.80;66.50;;;;;;10446659;28;20286;-77
2022/07/05 22:13:53;;;;;;;2.10;2.00;;;21.80;66.20;;;;;;10442006;28;20206;-78
2022/07/05 22:18:55;;;;;;;2.57;2.40;;;21.80;63.50;;;;;;10442469;28;20245;-77
2022/07/05 22:23:57;;;;;;;3.00;2.30;;;21.80;66.20;;;;;;10444462;28;20205;-77
2022/07/05 22:29:00;;;;;;;2.70;2.20;;;21.80;66.20;;;;;;10445133;28;20228;-77
2022/07/05 22:34:03;;;;;;;2.17;2.07;;;21.70;64.90;;;;;;10441155;28;20208;-77
2022/07/05 22:39:05;;;;;;;3.53;2.57;;;21.70;64.20;;;;;;10439081;28;20248;-78
2022/07/05 22:44:09;;;;;;;4.40;2.33;;;21.60;64.60;;;;;;10435656;28;20202;-76
2022/07/05 22:49:12;;;;;;;2.33;2.23;;;21.60;66.00;;;;;;10443241;28;20284;-76
2022/07/05 22:54:14;;;;;;;3.27;2.40;;;21.50;66.00;;;;;;10444448;28;20284;-77
2022/07/05 22:59:18;;;;;;;2.90;2.70;;;21.50;65.20;;;;;;10441991;28;20606;-76
2022/07/05 23:04:20;;;;;;;3.63;2.67;;;21.50;66.80;;;;;;10432783;28;20194;-77
2022/07/05 23:09:22;;;;;;;2.47;2.27;;;21.50;67.30;;;;;;10440964;28;20234;-76
2022/07/05 23:14:25;;;;;;;2.60;2.40;;;21.40;67.90;;;;;;10440960;28;20223;-77
2022/07/05 23:19:27;;;;;;;3.43;2.60;;;21.40;68.30;;;;;;10440187;28;20228;-77
2022/07/05 23:29:50;;;;;;;4.50;2.70;;;21.40;68.00;;;;;;10438214;28;20729;-77
2022/07/05 23:34:53;;;;;;;3.67;2.67;;;21.40;68.30;;;;;;10441277;28;20204;-77
2022/07/05 23:39:56;;;;;;;2.70;2.50;;;21.30;68.00;;;;;;10442810;28;20312;-77
2022/07/05 23:44:59;;;;;;;2.97;2.77;;;21.30;67.80;;;;;;10459844;28;20209;-77
2022/07/05 23:50:02;;;;;;;2.40;2.30;;;21.20;68.40;;;;;;10442729;28;20235;-78
2022/07/05 23:55:04;;;;;;;2.87;2.67;;;21.20;68.20;;;;;;10448011;28;20247;-76
